This is the latest recevied weather packets stored in our database for station/object KC5DAQ-27. If no packets are shown the sender has not sent any weather packets the latest 1 day(s).
| Time | Temp. | Humidity | Pressure | Rain* | Wind** | Luminosity | Snow |
|---|---|---|---|---|---|---|---|
| 1778015919 | 28.33° C | 79% | 998.7 hPa | 0 mm | 4.02 m/s, 0° | 406 W/m² | - |
| 1778015859 | 28.33° C | 79% | 998.7 hPa | 0 mm | 4.47 m/s, 0° | 406 W/m² | - |
| 1778015799 | 28.33° C | 78% | 998.7 hPa | 0 mm | 4.92 m/s, 0° | 401 W/m² | - |
| 1778015741 | 28.33° C | 79% | 998.8 hPa | 0 mm | 4.47 m/s, 0° | 383 W/m² | - |
| 1778015679 | 28.33° C | 79% | 998.8 hPa | 0 mm | 4.02 m/s, 0° | 382 W/m² | - |
| 1778015618 | 28.89° C | 79% | 998.7 hPa | 0 mm | 4.02 m/s, 0° | 394 W/m² | - |
| 1778015560 | 28.89° C | 79% | 998.8 hPa | 0 mm | 4.02 m/s, 0° | 503 W/m² | - |
| 1778015499 | 28.89° C | 79% | 998.7 hPa | 0 mm | 4.02 m/s, 0° | 503 W/m² | - |
| 1778015440 | 28.89° C | 79% | 998.6 hPa | 0 mm | 3.13 m/s, 0° | 498 W/m² | - |
| 1778015379 | 28.89° C | 79% | 998.6 hPa | 0 mm | 3.13 m/s, 0° | 475 W/m² | - |
| 1778015320 | 28.89° C | 79% | 998.7 hPa | 0 mm | 3.13 m/s, 0° | 591 W/m² | - |
| 1778015258 | 28.89° C | 79% | 998.6 hPa | 0 mm | 4.02 m/s, 0° | 839 W/m² | - |
| 1778015198 | 28.89° C | 80% | 998.6 hPa | 0 mm | 3.13 m/s, 0° | 573 W/m² | - |
| 1778015138 | 28.33° C | 80% | 998.6 hPa | 0 mm | 2.24 m/s, 0° | 429 W/m² | - |
| 1778015079 | 28.33° C | 79% | 998.6 hPa | 0 mm | 2.24 m/s, 0° | 462 W/m² | - |
| 1778015020 | 28.33° C | 79% | 998.7 hPa | 0 mm | 2.68 m/s, 0° | 503 W/m² | - |
| 1778014960 | 28.33° C | 79% | 998.6 hPa | 0 mm | 3.13 m/s, 0° | 538 W/m² | - |
| 1778014900 | 28.33° C | 78% | 998.7 hPa | 0 mm | 3.13 m/s, 0° | 498 W/m² | - |
| 1778014839 | 28.33° C | 78% | 998.8 hPa | 0 mm | 3.13 m/s, 0° | 459 W/m² | - |
| 1778014776 | 28.33° C | 78% | 998.8 hPa | 0 mm | 3.13 m/s, 0° | 445 W/m² | - |
| 1778014715 | 28.33° C | 78% | 998.8 hPa | 0 mm | 3.13 m/s, 0° | 466 W/m² | - |
| 1778014653 | 28.33° C | 78% | 998.8 hPa | 0 mm | 3.13 m/s, 0° | 441 W/m² | - |
| 1778014593 | 28.33° C | 78% | 998.8 hPa | 0 mm | 3.58 m/s, 0° | 420 W/m² | - |
| 1778014532 | 28.33° C | 79% | 998.8 hPa | 0 mm | 3.58 m/s, 0° | 369 W/m² | - |
| 1778014470 | 28.33° C | 79% | 998.8 hPa | 0 mm | 4.02 m/s, 0° | 434 W/m² | - |
* Rain latest hour (hover to see other rain measurements)
** Current wind speed in m/s (hover to see current wind gust speed)